Time;durP1;ratioP1;P1;durP2;ratioP2;P2;SDS_P1;SDS_P2;PMS_P1;PMS_P2;Temp;Humidity;BMP_temperature;BMP_pressure;BME280_temperature;BME280_humidity;BME280_pressure;Samples;Min_cycle;Max_cycle;Signal;HPM_P1;HPM_P2
2023/01/03 00:02:24;;;;;;;182.95;64.28;;;;;;;5.92;86.77;99716.09;4991349;28;20097;-58
2023/01/03 00:05:06;;;;;;;135.02;65.75;;;;;;;5.81;86.82;99724.91;4992154;28;20046;-59
2023/01/03 00:07:55;;;;;;;188.82;68.63;;;;;;;5.83;86.81;99723.00;4986291;28;20053;-56
2023/01/03 00:10:36;;;;;;;144.35;65.80;;;;;;;5.93;86.30;99722.19;5000567;28;20054;-58
2023/01/03 00:13:26;;;;;;;115.43;59.72;;;;;;;5.66;86.23;99726.28;4983520;28;20050;-57
2023/01/03 00:16:19;;;;;;;120.43;60.45;;;;;;;5.80;86.43;99733.75;4986811;28;20658;-58
2023/01/03 00:19:15;;;;;;;115.82;58.72;;;;;;;5.99;86.79;99729.50;4985882;28;20133;-55
2023/01/03 00:21:57;;;;;;;163.68;60.92;;;;;;;5.60;86.49;99733.88;4986670;28;20081;-59
2023/01/03 00:24:46;;;;;;;110.18;58.88;;;;;;;5.76;86.63;99732.38;4984946;28;20061;-58
2023/01/03 00:27:28;;;;;;;120.18;57.05;;;;;;;5.99;86.33;99738.22;4986532;28;20077;-55
2023/01/03 00:30:17;;;;;;;134.10;59.22;;;;;;;6.06;86.64;99734.09;4985820;28;20053;-58
2023/01/03 00:32:58;;;;;;;117.50;59.13;;;;;;;5.92;85.71;99746.81;4986066;28;20145;-55
2023/01/03 00:35:48;;;;;;;126.70;58.05;;;;;;;5.96;86.08;99743.78;4979188;28;20054;-58
2023/01/03 00:38:37;;;;;;;131.18;58.15;;;;;;;5.80;86.14;99754.78;4985673;28;20077;-58
2023/01/03 00:41:27;;;;;;;124.53;57.95;;;;;;;5.82;86.70;99752.03;4967936;28;20117;-58
2023/01/03 00:44:09;;;;;;;187.98;62.17;;;;;;;5.69;86.67;99749.66;4965885;28;20047;-57
2023/01/03 00:46:58;;;;;;;188.70;60.00;;;;;;;5.53;86.25;99753.78;4965700;28;20055;-58
2023/01/03 00:49:40;;;;;;;169.60;59.55;;;;;;;5.66;87.14;99762.25;4966896;28;20533;-58
2023/01/03 00:52:37;;;;;;;163.88;60.15;;;;;;;5.68;86.40;99758.50;4976009;28;20526;-58
2023/01/03 00:55:25;;;;;;;145.93;58.03;;;;;;;5.74;86.74;99767.66;4985772;28;20061;-58
2023/01/03 00:58:15;;;;;;;199.20;61.80;;;;;;;5.61;86.65;99770.53;4985346;28;20588;-58
2023/01/03 01:01:06;;;;;;;162.95;60.88;;;;;;;5.68;86.78;99781.31;4984955;28;20050;-59
2023/01/03 01:03:51;;;;;;;207.65;61.22;;;;;;;5.53;86.99;99777.44;4971926;28;20672;-58
2023/01/03 01:06:42;;;;;;;160.05;59.50;;;;;;;5.66;87.37;99786.72;4985269;28;20058;-59
2023/01/03 01:09:33;;;;;;;153.57;61.75;;;;;;;5.78;87.17;99782.19;4985211;28;20085;-59
2023/01/03 01:12:21;;;;;;;176.52;62.15;;;;;;;5.77;87.48;99786.59;4967805;28;20050;-58
2023/01/03 01:15:04;;;;;;;168.30;60.20;;;;;;;5.94;86.90;99790.38;4985357;28;20518;-57
2023/01/03 01:17:52;;;;;;;139.00;61.90;;;;;;;5.97;87.30;99797.19;4987756;28;20879;-58
2023/01/03 01:20:46;;;;;;;228.45;66.55;;;;;;;5.93;87.10;99803.69;4984756;28;20124;-59
2023/01/03 01:23:36;;;;;;;331.08;69.80;;;;;;;5.80;86.97;99811.78;4983999;28;20561;-58
2023/01/03 01:26:24;;;;;;;299.27;72.65;;;;;;;5.67;86.58;99816.44;4984467;28;20062;-58
2023/01/03 01:29:14;;;;;;;223.23;70.95;;;;;;;5.65;87.70;99818.38;4984871;28;20054;-59
2023/01/03 01:31:56;;;;;;;255.85;73.57;;;;;;;5.78;87.28;99819.81;4984402;28;20054;-59
2023/01/03 01:34:51;;;;;;;261.98;69.70;;;;;;;5.70;87.98;99826.72;4985093;28;20684;-59
2023/01/03 01:37:26;;;;;;;257.55;71.85;;;;;;;5.74;87.02;99825.47;4985297;28;20058;-58
2023/01/03 01:40:24;;;;;;;311.05;79.00;;;;;;;5.67;87.90;99826.94;4973345;28;20598;-60
2023/01/03 01:46:31;;;;;;;225.68;75.28;;;;;;;5.94;87.78;99834.25;4984288;28;20568;-59
2023/01/03 01:49:24;;;;;;;232.38;76.88;;;;;;;6.02;88.34;99827.34;4985235;28;20137;-59
2023/01/03 01:52:23;;;;;;;289.55;76.22;;;;;;;5.96;88.03;99840.22;4996385;28;20050;-57
2023/01/03 01:55:03;;;;;;;201.82;72.60;;;;;;;6.23;87.87;99840.41;4984896;28;20050;-59
2023/01/03 01:57:53;;;;;;;275.25;76.70;;;;;;;5.98;87.97;99847.00;4984004;28;20070;-60
2023/01/03 02:00:35;;;;;;;275.48;78.97;;;;;;;5.94;87.67;99850.03;4989047;28;20069;-58
2023/01/03 02:03:30;;;;;;;242.40;78.47;;;;;;;6.02;87.85;99858.91;4997166;28;20050;-59
2023/01/03 02:06:08;;;;;;;246.10;76.63;;;;;;;5.99;88.30;99861.81;4980525;28;20077;-60
2023/01/03 02:08:58;;;;;;;241.60;79.20;;;;;;;6.12;87.90;99864.19;4984562;28;20101;-58
2023/01/03 02:15:56;;;;;;;266.60;77.85;;;;;;;6.02;88.27;99874.69;4978428;28;20050;-62
2023/01/03 02:18:59;;;;;;;199.27;76.43;;;;;;;6.28;88.20;99878.47;4984411;28;20117;-59
2023/01/03 02:22:14;;;;;;;312.45;79.40;;;;;;;6.05;87.50;99890.19;4988706;28;20054;-61
2023/01/03 02:25:32;;;;;;;287.75;80.38;;;;;;;6.05;87.36;99884.13;4971411;28;20050;-59
2023/01/03 02:28:58;;;;;;;257.10;80.90;;;;;;;6.11;88.05;99892.28;5000354;28;20050;-59
2023/01/03 02:31:57;;;;;;;305.42;77.63;;;;;;;6.15;87.64;99895.50;4987328;28;20074;-60
2023/01/03 02:35:04;;;;;;;244.55;83.53;;;;;;;6.28;87.72;99907.41;4981487;28;20084;-59
2023/01/03 02:38:20;;;;;;;343.13;79.95;;;;;;;6.09;88.29;99904.75;4987276;28;20128;-60
2023/01/03 02:41:35;;;;;;;334.50;80.35;;;;;;;6.26;88.35;99904.09;4981838;28;20057;-60
2023/01/03 02:44:42;;;;;;;316.35;79.68;;;;;;;6.40;88.50;99905.50;4986036;28;20042;-58
2023/01/03 02:47:28;;;;;;;221.85;78.65;;;;;;;6.54;87.81;99910.38;4967169;28;20058;-59
2023/01/03 02:50:19;;;;;;;382.17;84.32;;;;;;;6.41;88.26;99915.06;4986145;28;20088;-59
2023/01/03 02:53:05;;;;;;;316.83;78.28;;;;;;;6.51;87.70;99915.06;4988120;28;20042;-59
2023/01/03 02:55:58;;;;;;;294.45;87.82;;;;;;;6.47;88.64;99911.88;4971829;28;20058;-58
2023/01/03 02:58:52;;;;;;;355.67;85.53;;;;;;;6.38;88.01;99920.56;4987345;28;20042;-58
2023/01/03 03:01:43;;;;;;;413.10;85.72;;;;;;;6.32;88.26;99921.13;4986604;28;20054;-58
2023/01/03 03:04:36;;;;;;;302.15;83.30;;;;;;;6.42;88.71;99919.34;4981205;28;20112;-60
2023/01/03 03:07:47;;;;;;;306.67;83.78;;;;;;;6.57;88.59;99923.25;4984448;28;20057;-59
2023/01/03 03:14:29;;;;;;;317.42;81.07;;;;;;;6.50;88.58;99937.09;4940419;29;20146;-58
2023/01/03 03:17:28;;;;;;;254.45;78.65;;;;;;;6.74;88.39;99934.88;4945645;29;20439;-58
2023/01/03 03:26:43;;;;;;;267.75;81.57;;;;;;;7.29;86.08;99945.69;4984631;28;20791;-59
2023/01/03 03:29:27;;;;;;;283.30;84.88;;;;;;;7.08;86.59;99949.28;4985551;28;20061;-59
2023/01/03 03:32:16;;;;;;;258.30;83.88;;;;;;;7.26;86.45;99951.25;4986289;28;20121;-58
2023/01/03 03:35:00;;;;;;;233.52;81.95;;;;;;;7.17;87.03;99956.38;4987895;28;20050;-59
2023/01/03 03:37:53;;;;;;;273.55;83.80;;;;;;;6.86;86.27;99964.56;4988529;28;20787;-59
2023/01/03 03:47:31;;;;;;;206.07;85.22;;;;;;;7.30;86.82;99976.34;4981394;28;20046;-58
2023/01/03 03:50:47;;;;;;;244.02;90.97;;;;;;;7.34;86.52;99975.09;4981404;28;20069;-59
2023/01/03 03:53:34;;;;;;;243.02;95.22;;;;;;;7.22;86.11;99983.13;4971546;28;20096;-58
2023/01/03 03:56:30;;;;;;;268.30;90.10;;;;;;;7.09;86.38;99977.31;5004941;28;20174;-59
2023/01/03 03:59:18;;;;;;;208.55;85.75;;;;;;;7.28;86.92;99983.53;5004117;28;20548;-56
2023/01/03 04:02:11;;;;;;;203.82;89.32;;;;;;;7.34;86.51;99983.00;5005980;28;20066;-56
2023/01/03 04:04:58;;;;;;;247.07;90.28;;;;;;;7.33;86.24;99987.44;5000133;28;20061;-57
2023/01/03 04:07:47;;;;;;;335.97;99.33;;;;;;;7.02;86.49;99992.00;5006527;28;20123;-58
2023/01/03 04:10:29;;;;;;;235.90;86.93;;;;;;;7.31;87.15;99999.06;5003333;28;20045;-59
2023/01/03 04:13:19;;;;;;;191.38;87.25;;;;;;;7.49;86.94;100000.84;4985200;28;20284;-59
2023/01/03 04:16:01;;;;;;;218.57;89.85;;;;;;;7.52;86.75;100007.66;5005673;28;20501;-60
2023/01/03 04:18:51;;;;;;;204.02;88.82;;;;;;;7.53;87.19;100011.94;4998014;28;20088;-60
2023/01/03 04:21:40;;;;;;;202.02;84.80;;;;;;;7.57;86.67;100000.97;4986774;28;20054;-61
2023/01/03 04:24:22;;;;;;;194.93;85.32;;;;;;;7.61;86.49;100009.44;5002865;28;20046;-60
2023/01/03 04:27:17;;;;;;;181.57;86.03;;;;;;;7.79;86.60;100002.44;5000444;28;20101;-61
2023/01/03 04:29:52;;;;;;;193.77;85.30;;;;;;;7.86;86.33;100005.38;4999435;28;20124;-60
2023/01/03 04:32:40;;;;;;;207.88;86.70;;;;;;;7.86;85.87;100008.00;5003504;28;20069;-60
2023/01/03 04:35:22;;;;;;;187.93;86.88;;;;;;;7.95;85.87;100012.41;5006103;28;20121;-60
2023/01/03 04:38:11;;;;;;;213.93;87.28;;;;;;;7.91;85.71;100003.13;4998523;28;20049;-60
2023/01/03 04:40:54;;;;;;;210.73;86.95;;;;;;;7.97;85.34;100007.81;5002892;28;20041;-60
2023/01/03 04:44:03;;;;;;;216.38;89.85;;;;;;;7.77;85.39;100007.06;4991862;28;20077;-60
2023/01/03 04:46:39;;;;;;;187.50;88.10;;;;;;;8.03;86.28;100020.44;5000245;28;20795;-60
2023/01/03 04:49:33;;;;;;;193.40;85.53;;;;;;;8.09;85.65;100015.44;4985421;28;20046;-61
2023/01/03 04:52:28;;;;;;;187.80;87.60;;;;;;;8.20;85.93;100010.94;4988643;28;20051;-60
2023/01/03 04:55:16;;;;;;;193.65;86.28;;;;;;;8.22;85.84;100012.47;4985817;28;20042;-60
2023/01/03 04:57:59;;;;;;;203.43;92.88;;;;;;;8.31;85.33;100008.97;4983938;28;20145;-60
2023/01/03 05:00:49;;;;;;;199.52;90.95;;;;;;;8.04;84.53;100019.47;4982966;28;20042;-60
2023/01/03 05:03:38;;;;;;;187.93;85.13;;;;;;;8.24;85.52;100017.56;4964641;28;20792;-60
2023/01/03 05:06:27;;;;;;;178.85;87.53;;;;;;;8.39;85.62;100013.53;4994250;28;20045;-59
2023/01/03 05:09:10;;;;;;;177.82;85.75;;;;;;;8.28;85.11;100009.22;4985647;28;20573;-60
2023/01/03 05:12:00;;;;;;;181.18;86.07;;;;;;;8.55;85.71;100019.00;4985844;28;20544;-60
2023/01/03 05:14:48;;;;;;;202.23;87.93;;;;;;;8.42;84.85;100015.88;4977367;28;20065;-60
2023/01/03 05:17:31;;;;;;;184.05;88.75;;;;;;;8.63;84.52;100016.44;4983299;28;20116;-60
2023/01/03 05:26:28;;;;;;;189.40;84.85;;;;;;;8.69;84.44;100017.66;4973381;28;20054;-58
2023/01/03 05:29:20;;;;;;;187.45;91.93;;;;;;;8.84;84.19;100014.38;4984441;28;20136;-58
2023/01/03 05:32:02;;;;;;;215.30;94.47;;;;;;;8.45;84.21;100018.22;4985552;28;20050;-59
2023/01/03 05:34:51;;;;;;;231.55;95.63;;;;;;;8.33;85.28;100022.00;4977451;28;20054;-59
2023/01/03 05:37:40;;;;;;;212.38;95.22;;;;;;;8.44;85.30;100024.47;4978986;28;20060;-58
2023/01/03 05:40:23;;;;;;;232.10;99.63;;;;;;;8.38;85.65;100022.41;5000198;28;20118;-59
2023/01/03 05:43:20;;;;;;;230.80;100.00;;;;;;;8.37;85.70;100012.81;5001505;28;20192;-57
2023/01/03 05:46:02;;;;;;;234.20;106.53;;;;;;;8.51;86.43;100020.25;4990140;28;20391;-58
2023/01/03 05:48:51;;;;;;;213.07;99.78;;;;;;;8.78;86.03;100017.59;4978947;28;20061;-58
2023/01/03 05:51:41;;;;;;;201.77;96.20;;;;;;;8.79;85.11;100019.28;4987706;28;20203;-60
2023/01/03 05:54:35;;;;;;;212.57;94.88;;;;;;;8.79;85.33;100026.38;4974776;28;20070;-60
2023/01/03 05:57:11;;;;;;;204.48;97.60;;;;;;;8.81;85.29;100019.09;4976854;28;20042;-60
2023/01/03 06:00:00;;;;;;;236.23;104.90;;;;;;;8.91;85.66;100019.88;4969415;28;20752;-58
2023/01/03 06:02:49;;;;;;;214.75;97.75;;;;;;;9.02;84.43;100017.03;4973590;28;20758;-60
2023/01/03 06:05:32;;;;;;;198.32;93.57;;;;;;;9.11;84.67;100017.94;4973419;28;20043;-61
2023/01/03 06:08:30;;;;;;;213.48;100.38;;;;;;;9.37;83.68;100019.69;4973480;28;20058;-59
2023/01/03 06:11:14;;;;;;;203.13;95.47;;;;;;;9.37;82.51;100008.28;4979253;28;20082;-59
2023/01/03 06:14:04;;;;;;;198.15;95.00;;;;;;;9.62;83.10;100011.94;4954843;28;20630;-58
2023/01/03 06:19:52;;;;;;;220.68;101.65;;;;;;;9.48;82.12;100005.38;4978683;28;20049;-59
2023/01/03 06:22:34;;;;;;;204.23;98.20;;;;;;;9.50;82.39;99998.13;4979834;28;20469;-60
2023/01/03 06:25:23;;;;;;;201.25;99.40;;;;;;;9.63;82.44;100006.50;4978504;28;20157;-58
2023/01/03 06:28:05;;;;;;;207.02;97.03;;;;;;;9.60;82.75;99998.88;4982138;28;20053;-57
2023/01/03 06:30:54;;;;;;;212.93;99.53;;;;;;;9.85;81.73;99989.28;4972934;28;20054;-58
2023/01/03 06:33:38;;;;;;;213.13;100.70;;;;;;;9.86;81.92;99985.66;4981713;28;20588;-58
2023/01/03 06:36:30;;;;;;;215.25;100.35;;;;;;;9.85;82.45;99986.63;4976274;28;20042;-59
2023/01/03 06:39:12;;;;;;;222.63;104.60;;;;;;;9.89;82.41;99982.69;4986357;28;20066;-60
2023/01/03 06:42:38;;;;;;;221.32;103.95;;;;;;;10.20;81.87;99983.03;4971018;28;20049;-59
2023/01/03 06:54:41;;;;;;;246.63;115.32;;;;;;;11.13;77.46;99964.25;4990840;28;20050;-59
2023/01/03 06:57:17;;;;;;;234.40;110.55;;;;;;;11.09;78.17;99954.13;4987392;28;20042;-59
2023/01/03 07:00:14;;;;;;;219.75;110.65;;;;;;;11.04;77.64;99953.78;4994612;28;20064;-61
2023/01/03 07:02:50;;;;;;;227.50;108.15;;;;;;;11.28;78.06;99945.84;4983186;28;20132;-58
2023/01/03 07:05:38;;;;;;;218.10;110.50;;;;;;;11.73;75.44;99940.00;4997097;28;20057;-58
2023/01/03 07:08:20;;;;;;;222.93;107.32;;;;;;;11.63;75.99;99926.06;4982933;28;20058;-58
2023/01/03 07:11:15;;;;;;;211.35;106.97;;;;;;;11.46;76.37;99922.59;4968906;28;20097;-59
2023/01/03 07:13:57;;;;;;;212.43;108.47;;;;;;;12.03;74.75;99917.19;4980446;28;20046;-58
2023/01/03 07:16:48;;;;;;;219.60;110.57;;;;;;;11.99;74.18;99916.69;4973574;28;20130;-58
2023/01/03 07:19:29;;;;;;;230.25;112.10;;;;;;;11.94;74.80;99911.09;4980843;28;20062;-59
2023/01/03 07:22:18;;;;;;;218.13;109.20;;;;;;;12.06;74.23;99904.41;4974845;28;20058;-61
2023/01/03 07:25:00;;;;;;;221.45;110.88;;;;;;;12.31;74.10;99904.28;4982604;28;20378;-60
2023/01/03 07:28:02;;;;;;;222.20;110.40;;;;;;;12.31;73.51;99897.13;4975174;28;20062;-60
2023/01/03 07:30:45;;;;;;;219.55;108.95;;;;;;;12.30;73.89;99899.97;4983383;28;20050;-60
2023/01/03 07:33:41;;;;;;;205.88;109.03;;;;;;;12.46;73.29;99887.44;4980731;28;20715;-60
2023/01/03 07:36:16;;;;;;;217.65;110.32;;;;;;;12.68;73.09;99888.44;4972065;28;20578;-60
2023/01/03 07:39:05;;;;;;;218.93;110.95;;;;;;;12.55;72.77;99882.88;4981560;28;20137;-60
2023/01/03 07:45:09;;;;;;;185.52;102.35;;;;;;;12.58;72.88;99874.56;4975623;28;20057;-60
2023/01/03 07:47:45;;;;;;;193.75;100.18;;;;;;;12.40;73.12;99881.97;4981713;28;20055;-60
2023/01/03 07:50:36;;;;;;;189.88;103.97;;;;;;;12.51;72.92;99860.34;4970990;28;20137;-60
2023/01/03 07:53:31;;;;;;;188.55;102.32;;;;;;;12.56;71.99;99857.97;4994380;28;20113;-60
2023/01/03 07:56:19;;;;;;;179.90;96.68;;;;;;;12.54;72.40;99858.13;5002269;28;20053;-59
2023/01/03 07:59:08;;;;;;;189.00;103.75;;;;;;;12.69;72.66;99860.03;5000919;28;20050;-61
2023/01/03 08:01:57;;;;;;;185.77;99.45;;;;;;;12.89;72.41;99848.72;4983689;28;20552;-60
2023/01/03 08:04:47;;;;;;;183.10;100.78;;;;;;;13.06;71.76;99850.25;4998161;28;20060;-61
2023/01/03 08:07:36;;;;;;;194.95;102.05;;;;;;;12.94;71.74;99842.88;5002165;28;20548;-60
2023/01/03 08:13:26;;;;;;;189.95;103.20;;;;;;;13.02;71.22;99830.34;4998117;28;20046;-61
2023/01/03 08:16:17;;;;;;;179.65;99.32;;;;;;;12.98;71.37;99830.88;4999572;28;20499;-62
2023/01/03 08:19:05;;;;;;;186.60;98.68;;;;;;;13.17;70.65;99825.09;4999878;28;20049;-61
2023/01/03 08:21:48;;;;;;;189.65;99.20;;;;;;;13.06;71.35;99820.97;4999027;28;20209;-61
2023/01/03 08:24:36;;;;;;;190.73;99.32;;;;;;;13.13;71.17;99821.13;4999922;28;20057;-62
2023/01/03 08:27:18;;;;;;;194.07;103.50;;;;;;;13.27;70.38;99811.53;4991382;28;20046;-61
2023/01/03 08:30:08;;;;;;;190.68;104.57;;;;;;;13.26;70.03;99809.84;5000506;28;20537;-59
2023/01/03 08:33:01;;;;;;;194.30;104.68;;;;;;;13.54;69.30;99807.41;4997432;28;20614;-62
2023/01/03 08:36:13;;;;;;;197.63;106.10;;;;;;;13.65;68.18;99791.78;5002637;28;20065;-60
2023/01/03 08:39:01;;;;;;;199.85;107.05;;;;;;;13.77;68.26;99792.13;5002468;28;20291;-62
2023/01/03 08:42:00;;;;;;;196.52;105.82;;;;;;;14.10;66.94;99789.84;5003349;28;20072;-61
2023/01/03 08:44:43;;;;;;;191.40;105.22;;;;;;;14.09;66.68;99786.34;4991024;28;20065;-61
2023/01/03 08:47:34;;;;;;;201.25;108.30;;;;;;;13.53;67.84;99787.09;5002105;28;20073;-61
2023/01/03 08:50:16;;;;;;;195.00;108.22;;;;;;;13.89;67.53;99785.31;4993583;28;20049;-61
2023/01/03 08:53:11;;;;;;;210.48;111.88;;;;;;;13.88;68.80;99783.66;4990194;28;20042;-61
2023/01/03 08:55:47;;;;;;;185.25;107.93;;;;;;;13.90;68.52;99779.78;4966297;28;20058;-61
2023/01/03 08:58:36;;;;;;;193.88;108.55;;;;;;;13.98;68.26;99770.88;4994466;28;20134;-62
2023/01/03 09:01:25;;;;;;;232.30;120.40;;;;;;;14.11;68.02;99771.03;4997084;28;20064;-62
2023/01/03 09:04:13;;;;;;;250.90;127.95;;;;;;;14.11;68.49;99768.34;4999604;28;20064;-60
2023/01/03 09:07:02;;;;;;;287.15;139.35;;;;;;;13.86;67.99;99772.34;5003330;28;20045;-60
2023/01/03 09:09:51;;;;;;;293.13;146.05;;;;;;;13.98;67.59;99767.38;4989667;28;20065;-60
2023/01/03 09:12:40;;;;;;;379.50;193.13;;;;;;;13.83;67.78;99767.41;5002035;28;20069;-60
2023/01/03 09:15:30;;;;;;;441.02;216.18;;;;;;;13.87;67.76;99752.72;4997239;28;20046;-60
2023/01/03 09:18:18;;;;;;;420.52;207.98;;;;;;;13.90;67.63;99755.00;5006213;28;20070;-61
2023/01/03 09:21:04;;;;;;;502.02;251.60;;;;;;;13.82;67.39;99750.59;5009234;28;20255;-61
2023/01/03 09:23:52;;;;;;;538.65;272.73;;;;;;;13.70;68.44;99751.28;5003219;28;20847;-61
2023/01/03 09:26:34;;;;;;;535.97;278.98;;;;;;;13.81;68.76;99745.47;5003160;28;20054;-63
2023/01/03 09:29:28;;;;;;;585.63;300.88;;;;;;;13.72;68.04;99754.59;5006422;28;20090;-61
2023/01/03 09:32:10;;;;;;;604.83;308.80;;;;;;;13.83;68.71;99751.44;5002310;28;20532;-60
2023/01/03 09:34:59;;;;;;;583.35;301.38;;;;;;;13.68;67.35;99753.28;5005109;28;20121;-60
2023/01/03 09:37:41;;;;;;;577.33;296.75;;;;;;;13.61;67.82;99763.03;4994889;28;21571;-60
2023/01/03 09:40:31;;;;;;;570.53;296.98;;;;;;;13.68;68.19;99761.28;5005563;28;20046;-60
2023/01/03 09:43:29;;;;;;;566.92;289.10;;;;;;;13.80;68.51;99757.16;5006207;28;20081;-60
2023/01/03 09:46:06;;;;;;;546.08;283.30;;;;;;;13.64;67.98;99755.50;4991769;28;20108;-60
2023/01/03 09:49:13;;;;;;;549.88;280.73;;;;;;;13.64;68.72;99757.34;5003650;28;20053;-61
2023/01/03 10:04:56;;;;;;;514.60;258.00;;;;;;;13.46;68.48;99752.41;4998329;28;20096;-61
2023/01/03 10:08:00;;;;;;;501.65;250.98;;;;;;;13.15;69.54;99755.25;5003712;28;20374;-61
2023/01/03 10:11:05;;;;;;;513.05;257.52;;;;;;;13.45;69.77;99748.13;4971573;28;20062;-61
2023/01/03 10:14:15;;;;;;;499.15;246.98;;;;;;;13.45;69.37;99743.59;4982970;28;20053;-61
2023/01/03 10:17:16;;;;;;;499.77;247.63;;;;;;;13.34;69.32;99738.75;5005490;28;20153;-61
2023/01/03 10:20:29;;;;;;;490.42;246.27;;;;;;;13.52;70.24;99738.38;5005146;28;20061;-61
2023/01/03 10:23:19;;;;;;;492.80;244.90;;;;;;;13.30;69.51;99737.47;5009235;28;20119;-61
2023/01/03 10:26:04;;;;;;;480.13;244.57;;;;;;;13.27;70.18;99740.53;5011951;28;20140;-62
2023/01/03 10:28:53;;;;;;;534.27;261.73;;;;;;;13.29;69.85;99737.66;5005440;28;20049;-61
2023/01/03 10:31:49;;;;;;;516.38;260.50;;;;;;;13.22;69.37;99731.44;5010583;28;20380;-61
2023/01/03 10:34:37;;;;;;;503.52;256.33;;;;;;;13.35;70.25;99732.44;5005511;28;20056;-60
2023/01/03 10:37:20;;;;;;;475.38;244.43;;;;;;;13.45;69.64;99730.28;5008971;28;20483;-61
2023/01/03 10:40:10;;;;;;;482.38;243.18;;;;;;;13.55;69.99;99731.84;5010689;28;20456;-60
2023/01/03 10:42:54;;;;;;;544.40;277.13;;;;;;;13.47;69.03;99728.28;5011278;28;20064;-62
2023/01/03 10:46:00;;;;;;;570.55;290.33;;;;;;;13.33;69.78;99726.47;5011571;28;20061;-61
2023/01/03 10:48:45;;;;;;;573.20;295.60;;;;;;;13.29;69.69;99725.19;5013555;28;20063;-61
2023/01/03 10:52:00;;;;;;;559.00;290.17;;;;;;;13.16;70.69;99724.19;5009387;28;20201;-60
2023/01/03 10:54:53;;;;;;;553.35;288.48;;;;;;;13.07;70.30;99736.72;4985313;28;20082;-61
2023/01/03 10:57:57;;;;;;;544.25;277.67;;;;;;;13.09;70.70;99732.06;4986733;28;20069;-62
2023/01/03 11:00:47;;;;;;;540.95;273.55;;;;;;;13.11;71.44;99729.22;4971713;28;20051;-64
2023/01/03 11:03:31;;;;;;;543.97;276.58;;;;;;;12.95;70.98;99731.03;4981940;28;20050;-61
2023/01/03 11:06:25;;;;;;;531.85;266.15;;;;;;;13.72;69.46;99722.66;4980951;28;20035;-61
2023/01/03 11:09:16;;;;;;;467.35;230.52;;;;;;;13.72;69.14;99723.44;4982424;28;20050;-66
2023/01/03 11:12:17;;;;;;;402.00;194.63;;;;;;;13.47;70.03;99719.47;4981466;28;20047;-61
2023/01/03 11:15:06;;;;;;;349.27;164.02;;;;;;;12.98;71.15;99717.34;4984897;28;20054;-61
2023/01/03 11:17:57;;;;;;;318.42;156.55;;;;;;;12.82;72.25;99722.03;4992500;28;20568;-60
2023/01/03 11:20:49;;;;;;;326.75;159.25;;;;;;;12.68;72.82;99722.81;4983348;28;20054;-61
2023/01/03 11:23:39;;;;;;;344.55;162.43;;;;;;;12.53;73.12;99720.97;4978350;28;20142;-61
2023/01/03 11:26:49;;;;;;;397.38;184.68;;;;;;;12.21;73.98;99721.25;4984572;28;20069;-60
2023/01/03 11:30:00;;;;;;;404.77;184.65;;;;;;;12.34;74.46;99713.50;4987346;28;20054;-60
2023/01/03 11:33:06;;;;;;;401.70;189.60;;;;;;;12.33;74.37;99713.69;4978129;28;20082;-60
2023/01/03 11:36:14;;;;;;;382.92;184.88;;;;;;;12.28;74.34;99719.53;4978587;28;20108;-60
2023/01/03 11:39:44;;;;;;;395.02;188.45;;;;;;;12.15;75.01;99724.63;4981282;28;20046;-60
2023/01/03 11:42:57;;;;;;;409.50;191.35;;;;;;;11.86;76.21;99727.16;4985922;28;20085;-60
2023/01/03 11:46:11;;;;;;;412.30;196.95;;;;;;;11.77;76.28;99734.34;4982915;28;20058;-60
2023/01/03 11:49:07;;;;;;;436.35;193.25;;;;;;;11.71;76.31;99730.50;4960257;28;20046;-61
2023/01/03 11:52:13;;;;;;;425.92;197.68;;;;;;;12.13;75.70;99734.56;4980908;28;20537;-61
2023/01/03 11:55:33;;;;;;;414.02;192.20;;;;;;;12.44;73.48;99730.00;4969054;28;20245;-61
2023/01/03 11:58:40;;;;;;;410.60;191.65;;;;;;;12.30;73.69;99729.97;4980016;28;20771;-62
2023/01/03 12:01:45;;;;;;;420.85;190.50;;;;;;;12.17;74.06;99737.72;4978076;28;20046;-61
2023/01/03 12:05:13;;;;;;;410.63;188.10;;;;;;;12.01;74.71;99736.00;4979342;28;20055;-61
2023/01/03 12:08:50;;;;;;;407.20;185.10;;;;;;;11.94;75.17;99735.88;4979337;28;20042;-61
2023/01/03 12:12:29;;;;;;;415.30;181.75;;;;;;;11.56;75.91;99737.53;4975268;28;20054;-60
2023/01/03 12:15:30;;;;;;;412.00;183.00;;;;;;;11.53;75.93;99737.91;4963945;28;20055;-60
2023/01/03 12:18:36;;;;;;;412.83;183.80;;;;;;;11.40;77.08;99744.75;4965605;28;20062;-61
2023/01/03 12:21:44;;;;;;;414.73;182.57;;;;;;;11.31;77.30;99746.63;4982539;28;20310;-60
2023/01/03 12:24:35;;;;;;;413.55;182.55;;;;;;;11.02;78.26;99755.13;4984507;28;20069;-61
2023/01/03 12:27:34;;;;;;;415.52;183.52;;;;;;;10.84;79.11;99757.19;4966826;28;20646;-61
2023/01/03 12:30:40;;;;;;;419.52;185.43;;;;;;;10.88;79.08;99744.41;4985064;28;20470;-61
2023/01/03 12:33:29;;;;;;;428.90;186.70;;;;;;;10.79;79.33;99748.91;4981516;28;20801;-60
2023/01/03 12:36:34;;;;;;;409.63;183.73;;;;;;;10.74;79.14;99749.41;4981968;28;20053;-61
2023/01/03 12:39:58;;;;;;;428.83;184.60;;;;;;;10.58;80.20;99762.66;4978457;28;20062;-61
2023/01/03 12:42:45;;;;;;;436.50;181.73;;;;;;;10.44;79.98;99759.88;4966963;28;20050;-61
2023/01/03 12:45:40;;;;;;;;;;;;;;;10.35;81.15;99764.34;4965226;28;20577;-60
2023/01/03 12:48:38;;;;;;;432.15;181.07;;;;;;;10.25;81.00;99775.06;4978977;28;19950;-61
2023/01/03 12:51:34;;;;;;;422.17;176.27;;;;;;;10.16;81.58;99773.41;4983688;28;20086;-61
2023/01/03 12:54:29;;;;;;;437.27;186.18;;;;;;;9.89;82.54;99773.66;5009469;28;20500;-61
2023/01/03 12:57:41;;;;;;;462.42;193.38;;;;;;;9.78;83.30;99774.75;4993157;28;20132;-61
2023/01/03 13:00:53;;;;;;;453.75;189.25;;;;;;;9.86;83.29;99781.91;5000802;28;20084;-60
2023/01/03 13:03:56;;;;;;;468.90;193.13;;;;;;;9.64;84.95;99783.34;4990152;28;20053;-60
2023/01/03 13:06:45;;;;;;;474.70;196.73;;;;;;;9.69;84.30;99782.88;5000140;28;20484;-61
2023/01/03 13:09:46;;;;;;;484.20;201.38;;;;;;;9.69;84.58;99788.94;5004583;28;20049;-61
2023/01/03 13:12:29;;;;;;;;;;;;;;;10.02;83.95;99792.53;5002364;28;20064;-60
2023/01/03 13:15:35;;;;;;;468.73;194.63;;;;;;;9.88;84.23;99809.84;5000855;28;19987;-61
2023/01/03 13:18:24;;;;;;;481.42;203.35;;;;;;;9.87;83.94;99804.72;5005632;28;20166;-61
2023/01/03 13:21:08;;;;;;;493.65;203.93;;;;;;;9.98;83.79;99806.25;5002778;28;20841;-61
2023/01/03 13:24:06;;;;;;;492.38;205.05;;;;;;;9.90;83.97;99805.25;5002886;28;20050;-61
2023/01/03 13:27:16;;;;;;;496.67;208.65;;;;;;;9.84;84.09;99813.81;4986190;28;20077;-61
2023/01/03 13:30:31;;;;;;;493.80;206.20;;;;;;;9.93;84.52;99812.03;5003682;28;20064;-61
2023/01/03 13:33:10;;;;;;;500.15;204.77;;;;;;;10.06;84.44;99806.25;4994580;28;20145;-60
2023/01/03 13:36:08;;;;;;;495.27;209.75;;;;;;;10.15;83.73;99810.59;4994349;28;20502;-60
2023/01/03 13:38:45;;;;;;;520.08;218.85;;;;;;;9.90;82.67;99815.00;5003461;28;20052;-60
2023/01/03 13:41:38;;;;;;;497.58;213.13;;;;;;;9.68;84.28;99815.59;4980890;28;20042;-60
2023/01/03 13:44:29;;;;;;;499.05;215.15;;;;;;;9.85;84.56;99822.59;4994697;28;20050;-60
2023/01/03 13:47:44;;;;;;;506.02;210.80;;;;;;;9.76;85.25;99823.53;4987676;28;20046;-62
2023/01/03 13:50:37;;;;;;;504.52;212.23;;;;;;;10.04;84.05;99819.69;4992469;28;20370;-60
2023/01/03 13:53:20;;;;;;;526.95;217.68;;;;;;;10.11;83.57;99819.84;4999209;28;20419;-61
2023/01/03 13:56:20;;;;;;;510.75;217.68;;;;;;;10.10;83.96;99812.88;4982275;28;20078;-64
2023/01/03 13:59:43;;;;;;;560.25;223.95;;;;;;;9.98;84.22;99824.78;4994680;28;20050;-61
2023/01/03 14:03:27;;;;;;;491.38;210.48;;;;;;;9.97;83.35;99815.16;5000675;28;20054;-62
2023/01/03 14:06:35;;;;;;;494.15;200.93;;;;;;;9.91;84.02;99809.53;4963008;28;20047;-61
2023/01/03 14:09:48;;;;;;;486.52;204.55;;;;;;;9.83;83.65;99812.16;4998298;28;20849;-60